<?xml version="1.0" encoding="UTF-8" standalone="no" ?>
<gpx xmlns="http://www.topografix.com/GPX/1/1" xmlns:xsi="http://www.w3.org/2001/XMLSchema-instance" xsi:schemaLocation="http://www.topografix.com/GPX/1/1 http://www.topografix.com/GPX/1/1/gpx.xsd" version="1.1" creator="VisuGPX - https://www.visugpx.com">
  <metadata>
    <name>9097463-Plo del Naou RM raquettes</name>
    <desc><![CDATA[Rando raquettes Payolle]]></desc>
  </metadata>
  <trk>
    <name><![CDATA[9097463-Plo del Naou RM raquettes]]></name>
    <trkseg>
      <trkpt lat="42.93556" lon="0.30042">
        <ele>1152</ele>
        <time>2021-01-09T13:16:03Z</time>
      </trkpt>
      <trkpt lat="42.93547" lon="0.30068">
        <ele>1156</ele>
        <time>2021-01-09T13:16:20Z</time>
      </trkpt>
      <trkpt lat="42.93537" lon="0.30068">
        <ele>1157</ele>
        <time>2021-01-09T13:16:28Z</time>
      </trkpt>
      <trkpt lat="42.93521" lon="0.30054">
        <ele>1158</ele>
        <time>2021-01-09T13:16:43Z</time>
      </trkpt>
      <trkpt lat="42.93515" lon="0.30044">
        <ele>1158</ele>
        <time>2021-01-09T13:16:51Z</time>
      </trkpt>
      <trkpt lat="42.93509" lon="0.30018">
        <ele>1156</ele>
        <time>2021-01-09T13:17:07Z</time>
      </trkpt>
      <trkpt lat="42.935" lon="0.29996">
        <ele>1154</ele>
        <time>2021-01-09T13:17:21Z</time>
      </trkpt>
      <trkpt lat="42.93474" lon="0.29959">
        <ele>1157</ele>
        <time>2021-01-09T13:17:51Z</time>
      </trkpt>
      <trkpt lat="42.93462" lon="0.29907">
        <ele>1155</ele>
        <time>2021-01-09T13:18:23Z</time>
      </trkpt>
      <trkpt lat="42.93444" lon="0.29872">
        <ele>1160</ele>
        <time>2021-01-09T13:18:49Z</time>
      </trkpt>
      <trkpt lat="42.9343" lon="0.29853">
        <ele>1162</ele>
        <time>2021-01-09T13:19:04Z</time>
      </trkpt>
      <trkpt lat="42.93415" lon="0.29839">
        <ele>1162</ele>
        <time>2021-01-09T13:19:19Z</time>
      </trkpt>
      <trkpt lat="42.93399" lon="0.29806">
        <ele>1160</ele>
        <time>2021-01-09T13:19:42Z</time>
      </trkpt>
      <trkpt lat="42.93361" lon="0.29768">
        <ele>1153</ele>
        <time>2021-01-09T13:20:20Z</time>
      </trkpt>
      <trkpt lat="42.93351" lon="0.29764">
        <ele>1151</ele>
        <time>2021-01-09T13:20:28Z</time>
      </trkpt>
      <trkpt lat="42.933" lon="0.29762">
        <ele>1147</ele>
        <time>2021-01-09T13:21:09Z</time>
      </trkpt>
      <trkpt lat="42.93281" lon="0.29757">
        <ele>1145</ele>
        <time>2021-01-09T13:21:24Z</time>
      </trkpt>
      <trkpt lat="42.93254" lon="0.2974">
        <ele>1144</ele>
        <time>2021-01-09T13:21:48Z</time>
      </trkpt>
      <trkpt lat="42.93238" lon="0.29743">
        <ele>1145</ele>
        <time>2021-01-09T13:22:01Z</time>
      </trkpt>
      <trkpt lat="42.93219" lon="0.2975">
        <ele>1145</ele>
        <time>2021-01-09T13:22:17Z</time>
      </trkpt>
      <trkpt lat="42.93211" lon="0.29757">
        <ele>1147</ele>
        <time>2021-01-09T13:22:25Z</time>
      </trkpt>
      <trkpt lat="42.93202" lon="0.2976">
        <ele>1148</ele>
        <time>2021-01-09T13:22:32Z</time>
      </trkpt>
      <trkpt lat="42.93157" lon="0.29788">
        <ele>1152</ele>
        <time>2021-01-09T13:23:12Z</time>
      </trkpt>
      <trkpt lat="42.93117" lon="0.29824">
        <ele>1153</ele>
        <time>2021-01-09T13:23:50Z</time>
      </trkpt>
      <trkpt lat="42.931" lon="0.29848">
        <ele>1154</ele>
        <time>2021-01-09T13:24:09Z</time>
      </trkpt>
      <trkpt lat="42.93089" lon="0.29872">
        <ele>1158</ele>
        <time>2021-01-09T13:24:26Z</time>
      </trkpt>
      <trkpt lat="42.93074" lon="0.29891">
        <ele>1161</ele>
        <time>2021-01-09T13:24:42Z</time>
      </trkpt>
      <trkpt lat="42.93074" lon="0.29903">
        <ele>1163</ele>
        <time>2021-01-09T13:24:50Z</time>
      </trkpt>
      <trkpt lat="42.93086" lon="0.29939">
        <ele>1171</ele>
        <time>2021-01-09T13:25:13Z</time>
      </trkpt>
      <trkpt lat="42.93096" lon="0.29961">
        <ele>1177</ele>
        <time>2021-01-09T13:25:28Z</time>
      </trkpt>
      <trkpt lat="42.93094" lon="0.29973">
        <ele>1179</ele>
        <time>2021-01-09T13:25:35Z</time>
      </trkpt>
      <trkpt lat="42.93107" lon="0.30011">
        <ele>1188</ele>
        <time>2021-01-09T13:26:00Z</time>
      </trkpt>
      <trkpt lat="42.93125" lon="0.30044">
        <ele>1196</ele>
        <time>2021-01-09T13:26:24Z</time>
      </trkpt>
      <trkpt lat="42.93125" lon="0.30056">
        <ele>1198</ele>
        <time>2021-01-09T13:26:31Z</time>
      </trkpt>
      <trkpt lat="42.93146" lon="0.30118">
        <ele>1213</ele>
        <time>2021-01-09T13:27:11Z</time>
      </trkpt>
      <trkpt lat="42.93154" lon="0.30138">
        <ele>1219</ele>
        <time>2021-01-09T13:27:24Z</time>
      </trkpt>
      <trkpt lat="42.93162" lon="0.30147">
        <ele>1224</ele>
        <time>2021-01-09T13:27:33Z</time>
      </trkpt>
      <trkpt lat="42.93183" lon="0.3019">
        <ele>1235</ele>
        <time>2021-01-09T13:28:03Z</time>
      </trkpt>
      <trkpt lat="42.93193" lon="0.30226">
        <ele>1242</ele>
        <time>2021-01-09T13:28:25Z</time>
      </trkpt>
      <trkpt lat="42.93203" lon="0.30251">
        <ele>1248</ele>
        <time>2021-01-09T13:28:42Z</time>
      </trkpt>
      <trkpt lat="42.93215" lon="0.30273">
        <ele>1253</ele>
        <time>2021-01-09T13:28:58Z</time>
      </trkpt>
      <trkpt lat="42.93212" lon="0.30304">
        <ele>1256</ele>
        <time>2021-01-09T13:29:17Z</time>
      </trkpt>
      <trkpt lat="42.93215" lon="0.30333">
        <ele>1260</ele>
        <time>2021-01-09T13:29:34Z</time>
      </trkpt>
      <trkpt lat="42.93212" lon="0.30381">
        <ele>1268</ele>
        <time>2021-01-09T13:30:02Z</time>
      </trkpt>
      <trkpt lat="42.93223" lon="0.30422">
        <ele>1277</ele>
        <time>2021-01-09T13:30:28Z</time>
      </trkpt>
      <trkpt lat="42.93224" lon="0.30437">
        <ele>1279</ele>
        <time>2021-01-09T13:30:36Z</time>
      </trkpt>
      <trkpt lat="42.93235" lon="0.30493">
        <ele>1288</ele>
        <time>2021-01-09T13:31:10Z</time>
      </trkpt>
      <trkpt lat="42.9324" lon="0.30505">
        <ele>1290</ele>
        <time>2021-01-09T13:31:18Z</time>
      </trkpt>
      <trkpt lat="42.93244" lon="0.30574">
        <ele>1300</ele>
        <time>2021-01-09T13:31:59Z</time>
      </trkpt>
      <trkpt lat="42.93263" lon="0.30625">
        <ele>1311</ele>
        <time>2021-01-09T13:32:33Z</time>
      </trkpt>
      <trkpt lat="42.93273" lon="0.30665">
        <ele>1321</ele>
        <time>2021-01-09T13:32:57Z</time>
      </trkpt>
      <trkpt lat="42.9329" lon="0.30682">
        <ele>1324</ele>
        <time>2021-01-09T13:33:14Z</time>
      </trkpt>
      <trkpt lat="42.93291" lon="0.30694">
        <ele>1327</ele>
        <time>2021-01-09T13:33:21Z</time>
      </trkpt>
      <trkpt lat="42.93304" lon="0.30717">
        <ele>1332</ele>
        <time>2021-01-09T13:33:38Z</time>
      </trkpt>
      <trkpt lat="42.93318" lon="0.3075">
        <ele>1340</ele>
        <time>2021-01-09T13:34:01Z</time>
      </trkpt>
      <trkpt lat="42.93325" lon="0.30803">
        <ele>1351</ele>
        <time>2021-01-09T13:34:32Z</time>
      </trkpt>
      <trkpt lat="42.93338" lon="0.30854">
        <ele>1363</ele>
        <time>2021-01-09T13:35:04Z</time>
      </trkpt>
      <trkpt lat="42.93338" lon="0.30867">
        <ele>1366</ele>
        <time>2021-01-09T13:35:12Z</time>
      </trkpt>
      <trkpt lat="42.93336" lon="0.30866">
        <ele>1366</ele>
        <time>2021-01-09T13:35:13Z</time>
      </trkpt>
      <trkpt lat="42.93341" lon="0.30891">
        <ele>1371</ele>
        <time>2021-01-09T13:35:28Z</time>
      </trkpt>
      <trkpt lat="42.93358" lon="0.30944">
        <ele>1382</ele>
        <time>2021-01-09T13:36:02Z</time>
      </trkpt>
      <trkpt lat="42.93366" lon="0.30981">
        <ele>1390</ele>
        <time>2021-01-09T13:36:25Z</time>
      </trkpt>
      <trkpt lat="42.93363" lon="0.31019">
        <ele>1396</ele>
        <time>2021-01-09T13:36:47Z</time>
      </trkpt>
      <trkpt lat="42.93368" lon="0.31047">
        <ele>1400</ele>
        <time>2021-01-09T13:37:04Z</time>
      </trkpt>
      <trkpt lat="42.93364" lon="0.31059">
        <ele>1402</ele>
        <time>2021-01-09T13:37:12Z</time>
      </trkpt>
      <trkpt lat="42.93362" lon="0.31096">
        <ele>1407</ele>
        <time>2021-01-09T13:37:34Z</time>
      </trkpt>
      <trkpt lat="42.93375" lon="0.31144">
        <ele>1415</ele>
        <time>2021-01-09T13:38:04Z</time>
      </trkpt>
      <trkpt lat="42.93376" lon="0.31169">
        <ele>1419</ele>
        <time>2021-01-09T13:38:18Z</time>
      </trkpt>
      <trkpt lat="42.93371" lon="0.3122">
        <ele>1429</ele>
        <time>2021-01-09T13:38:49Z</time>
      </trkpt>
      <trkpt lat="42.93362" lon="0.31252">
        <ele>1435</ele>
        <time>2021-01-09T13:39:09Z</time>
      </trkpt>
      <trkpt lat="42.93362" lon="0.31279">
        <ele>1443</ele>
        <time>2021-01-09T13:39:25Z</time>
      </trkpt>
      <trkpt lat="42.93358" lon="0.31292">
        <ele>1447</ele>
        <time>2021-01-09T13:39:33Z</time>
      </trkpt>
      <trkpt lat="42.93352" lon="0.31355">
        <ele>1467</ele>
        <time>2021-01-09T13:40:10Z</time>
      </trkpt>
      <trkpt lat="42.93348" lon="0.3137">
        <ele>1473</ele>
        <time>2021-01-09T13:40:19Z</time>
      </trkpt>
      <trkpt lat="42.93341" lon="0.31378">
        <ele>1476</ele>
        <time>2021-01-09T13:40:27Z</time>
      </trkpt>
      <trkpt lat="42.9335" lon="0.31446">
        <ele>1497</ele>
        <time>2021-01-09T13:41:07Z</time>
      </trkpt>
      <trkpt lat="42.93345" lon="0.31458">
        <ele>1501</ele>
        <time>2021-01-09T13:41:15Z</time>
      </trkpt>
      <trkpt lat="42.93338" lon="0.31504">
        <ele>1515</ele>
        <time>2021-01-09T13:41:43Z</time>
      </trkpt>
      <trkpt lat="42.93339" lon="0.31516">
        <ele>1518</ele>
        <time>2021-01-09T13:41:50Z</time>
      </trkpt>
      <trkpt lat="42.93333" lon="0.31535">
        <ele>1525</ele>
        <time>2021-01-09T13:42:02Z</time>
      </trkpt>
      <trkpt lat="42.93328" lon="0.31573">
        <ele>1534</ele>
        <time>2021-01-09T13:42:25Z</time>
      </trkpt>
      <trkpt lat="42.93324" lon="0.31586">
        <ele>1537</ele>
        <time>2021-01-09T13:42:33Z</time>
      </trkpt>
      <trkpt lat="42.93329" lon="0.31608">
        <ele>1541</ele>
        <time>2021-01-09T13:42:46Z</time>
      </trkpt>
      <trkpt lat="42.9332" lon="0.31635">
        <ele>1544</ele>
        <time>2021-01-09T13:43:04Z</time>
      </trkpt>
      <trkpt lat="42.93319" lon="0.31648">
        <ele>1546</ele>
        <time>2021-01-09T13:43:12Z</time>
      </trkpt>
      <trkpt lat="42.93309" lon="0.31673">
        <ele>1551</ele>
        <time>2021-01-09T13:43:28Z</time>
      </trkpt>
      <trkpt lat="42.93309" lon="0.31685">
        <ele>1553</ele>
        <time>2021-01-09T13:43:35Z</time>
      </trkpt>
      <trkpt lat="42.93304" lon="0.31699">
        <ele>1557</ele>
        <time>2021-01-09T13:43:44Z</time>
      </trkpt>
      <trkpt lat="42.93295" lon="0.31707">
        <ele>1560</ele>
        <time>2021-01-09T13:43:53Z</time>
      </trkpt>
      <trkpt lat="42.93283" lon="0.31738">
        <ele>1570</ele>
        <time>2021-01-09T13:44:14Z</time>
      </trkpt>
      <trkpt lat="42.93281" lon="0.31749">
        <ele>1573</ele>
        <time>2021-01-09T13:44:20Z</time>
      </trkpt>
      <trkpt lat="42.93265" lon="0.31769">
        <ele>1582</ele>
        <time>2021-01-09T13:44:38Z</time>
      </trkpt>
      <trkpt lat="42.93247" lon="0.31841">
        <ele>1605</ele>
        <time>2021-01-09T13:45:22Z</time>
      </trkpt>
      <trkpt lat="42.93238" lon="0.3185">
        <ele>1605</ele>
        <time>2021-01-09T13:45:31Z</time>
      </trkpt>
      <trkpt lat="42.93238" lon="0.31875">
        <ele>1609</ele>
        <time>2021-01-09T13:45:46Z</time>
      </trkpt>
      <trkpt lat="42.9323" lon="0.31898">
        <ele>1612</ele>
        <time>2021-01-09T13:46:01Z</time>
      </trkpt>
      <trkpt lat="42.93223" lon="0.31933">
        <ele>1616</ele>
        <time>2021-01-09T13:46:22Z</time>
      </trkpt>
      <trkpt lat="42.93207" lon="0.31944">
        <ele>1617</ele>
        <time>2021-01-09T13:46:36Z</time>
      </trkpt>
      <trkpt lat="42.93196" lon="0.31958">
        <ele>1618</ele>
        <time>2021-01-09T13:46:48Z</time>
      </trkpt>
      <trkpt lat="42.93176" lon="0.31976">
        <ele>1621</ele>
        <time>2021-01-09T13:47:07Z</time>
      </trkpt>
      <trkpt lat="42.93166" lon="0.31982">
        <ele>1622</ele>
        <time>2021-01-09T13:47:16Z</time>
      </trkpt>
      <trkpt lat="42.93148" lon="0.31988">
        <ele>1620</ele>
        <time>2021-01-09T13:47:31Z</time>
      </trkpt>
      <trkpt lat="42.93109" lon="0.31996">
        <ele>1615</ele>
        <time>2021-01-09T13:48:03Z</time>
      </trkpt>
      <trkpt lat="42.9309" lon="0.31995">
        <ele>1611</ele>
        <time>2021-01-09T13:48:18Z</time>
      </trkpt>
      <trkpt lat="42.93059" lon="0.32008">
        <ele>1607</ele>
        <time>2021-01-09T13:48:44Z</time>
      </trkpt>
      <trkpt lat="42.93048" lon="0.32008">
        <ele>1606</ele>
        <time>2021-01-09T13:48:53Z</time>
      </trkpt>
      <trkpt lat="42.93039" lon="0.32004">
        <ele>1605</ele>
        <time>2021-01-09T13:49:00Z</time>
      </trkpt>
      <trkpt lat="42.93014" lon="0.31983">
        <ele>1601</ele>
        <time>2021-01-09T13:49:24Z</time>
      </trkpt>
      <trkpt lat="42.92973" lon="0.31928">
        <ele>1595</ele>
        <time>2021-01-09T13:50:10Z</time>
      </trkpt>
      <trkpt lat="42.92961" lon="0.31901">
        <ele>1595</ele>
        <time>2021-01-09T13:50:28Z</time>
      </trkpt>
      <trkpt lat="42.92944" lon="0.31882">
        <ele>1596</ele>
        <time>2021-01-09T13:50:46Z</time>
      </trkpt>
      <trkpt lat="42.92933" lon="0.31878">
        <ele>1597</ele>
        <time>2021-01-09T13:50:55Z</time>
      </trkpt>
      <trkpt lat="42.92921" lon="0.31877">
        <ele>1597</ele>
        <time>2021-01-09T13:51:05Z</time>
      </trkpt>
      <trkpt lat="42.92895" lon="0.31859">
        <ele>1596</ele>
        <time>2021-01-09T13:51:28Z</time>
      </trkpt>
      <trkpt lat="42.92889" lon="0.31848">
        <ele>1597</ele>
        <time>2021-01-09T13:51:36Z</time>
      </trkpt>
      <trkpt lat="42.92867" lon="0.31826">
        <ele>1596</ele>
        <time>2021-01-09T13:51:58Z</time>
      </trkpt>
      <trkpt lat="42.92847" lon="0.31787">
        <ele>1596</ele>
        <time>2021-01-09T13:52:26Z</time>
      </trkpt>
      <trkpt lat="42.92838" lon="0.31785">
        <ele>1596</ele>
        <time>2021-01-09T13:52:33Z</time>
      </trkpt>
      <trkpt lat="42.92804" lon="0.31764">
        <ele>1596</ele>
        <time>2021-01-09T13:53:03Z</time>
      </trkpt>
      <trkpt lat="42.92768" lon="0.31751">
        <ele>1597</ele>
        <time>2021-01-09T13:53:33Z</time>
      </trkpt>
      <trkpt lat="42.9276" lon="0.31742">
        <ele>1596</ele>
        <time>2021-01-09T13:53:41Z</time>
      </trkpt>
      <trkpt lat="42.9275" lon="0.31738">
        <ele>1596</ele>
        <time>2021-01-09T13:53:49Z</time>
      </trkpt>
      <trkpt lat="42.92733" lon="0.31725">
        <ele>1595</ele>
        <time>2021-01-09T13:54:05Z</time>
      </trkpt>
      <trkpt lat="42.92713" lon="0.31722">
        <ele>1595</ele>
        <time>2021-01-09T13:54:21Z</time>
      </trkpt>
      <trkpt lat="42.92706" lon="0.31715">
        <ele>1595</ele>
        <time>2021-01-09T13:54:28Z</time>
      </trkpt>
      <trkpt lat="42.92711" lon="0.31716">
        <ele>1595</ele>
        <time>2021-01-09T13:54:32Z</time>
      </trkpt>
      <trkpt lat="42.92705" lon="0.31711">
        <ele>1596</ele>
        <time>2021-01-09T13:54:38Z</time>
      </trkpt>
      <trkpt lat="42.92676" lon="0.31694">
        <ele>1599</ele>
        <time>2021-01-09T13:55:03Z</time>
      </trkpt>
      <trkpt lat="42.9265" lon="0.31686">
        <ele>1603</ele>
        <time>2021-01-09T13:55:24Z</time>
      </trkpt>
      <trkpt lat="42.92635" lon="0.31666">
        <ele>1610</ele>
        <time>2021-01-09T13:55:41Z</time>
      </trkpt>
      <trkpt lat="42.9263" lon="0.31654">
        <ele>1608</ele>
        <time>2021-01-09T13:55:49Z</time>
      </trkpt>
      <trkpt lat="42.92622" lon="0.3165">
        <ele>1609</ele>
        <time>2021-01-09T13:55:56Z</time>
      </trkpt>
      <trkpt lat="42.92613" lon="0.31651">
        <ele>1610</ele>
        <time>2021-01-09T13:56:03Z</time>
      </trkpt>
      <trkpt lat="42.92594" lon="0.31661">
        <ele>1614</ele>
        <time>2021-01-09T13:56:20Z</time>
      </trkpt>
      <trkpt lat="42.92585" lon="0.31662">
        <ele>1615</ele>
        <time>2021-01-09T13:56:27Z</time>
      </trkpt>
      <trkpt lat="42.92577" lon="0.31659">
        <ele>1615</ele>
        <time>2021-01-09T13:56:33Z</time>
      </trkpt>
      <trkpt lat="42.92568" lon="0.31659">
        <ele>1614</ele>
        <time>2021-01-09T13:56:41Z</time>
      </trkpt>
      <trkpt lat="42.92562" lon="0.31662">
        <ele>1613</ele>
        <time>2021-01-09T13:56:46Z</time>
      </trkpt>
      <trkpt lat="42.92548" lon="0.31643">
        <ele>1612</ele>
        <time>2021-01-09T13:57:02Z</time>
      </trkpt>
      <trkpt lat="42.92526" lon="0.31628">
        <ele>1614</ele>
        <time>2021-01-09T13:57:21Z</time>
      </trkpt>
      <trkpt lat="42.92514" lon="0.31614">
        <ele>1617</ele>
        <time>2021-01-09T13:57:34Z</time>
      </trkpt>
      <trkpt lat="42.92502" lon="0.31596">
        <ele>1622</ele>
        <time>2021-01-09T13:57:48Z</time>
      </trkpt>
      <trkpt lat="42.92493" lon="0.31576">
        <ele>1624</ele>
        <time>2021-01-09T13:58:02Z</time>
      </trkpt>
      <trkpt lat="42.92485" lon="0.31567">
        <ele>1624</ele>
        <time>2021-01-09T13:58:10Z</time>
      </trkpt>
      <trkpt lat="42.92474" lon="0.31548">
        <ele>1625</ele>
        <time>2021-01-09T13:58:24Z</time>
      </trkpt>
      <trkpt lat="42.92465" lon="0.31541">
        <ele>1626</ele>
        <time>2021-01-09T13:58:33Z</time>
      </trkpt>
      <trkpt lat="42.92454" lon="0.31522">
        <ele>1630</ele>
        <time>2021-01-09T13:58:47Z</time>
      </trkpt>
      <trkpt lat="42.92447" lon="0.31516">
        <ele>1633</ele>
        <time>2021-01-09T13:58:53Z</time>
      </trkpt>
      <trkpt lat="42.9243" lon="0.31509">
        <ele>1639</ele>
        <time>2021-01-09T13:59:08Z</time>
      </trkpt>
      <trkpt lat="42.92385" lon="0.31499">
        <ele>1654</ele>
        <time>2021-01-09T13:59:44Z</time>
      </trkpt>
      <trkpt lat="42.92359" lon="0.31496">
        <ele>1662</ele>
        <time>2021-01-09T14:00:05Z</time>
      </trkpt>
      <trkpt lat="42.92342" lon="0.315">
        <ele>1667</ele>
        <time>2021-01-09T14:00:19Z</time>
      </trkpt>
      <trkpt lat="42.92324" lon="0.31496">
        <ele>1672</ele>
        <time>2021-01-09T14:00:34Z</time>
      </trkpt>
      <trkpt lat="42.92318" lon="0.31488">
        <ele>1672</ele>
        <time>2021-01-09T14:00:40Z</time>
      </trkpt>
      <trkpt lat="42.923" lon="0.31483">
        <ele>1676</ele>
        <time>2021-01-09T14:00:55Z</time>
      </trkpt>
      <trkpt lat="42.92275" lon="0.31465">
        <ele>1682</ele>
        <time>2021-01-09T14:01:18Z</time>
      </trkpt>
      <trkpt lat="42.92256" lon="0.31464">
        <ele>1687</ele>
        <time>2021-01-09T14:01:33Z</time>
      </trkpt>
      <trkpt lat="42.9223" lon="0.31452">
        <ele>1692</ele>
        <time>2021-01-09T14:01:55Z</time>
      </trkpt>
      <trkpt lat="42.92196" lon="0.31413">
        <ele>1705</ele>
        <time>2021-01-09T14:02:30Z</time>
      </trkpt>
      <trkpt lat="42.92186" lon="0.31408">
        <ele>1706</ele>
        <time>2021-01-09T14:02:39Z</time>
      </trkpt>
      <trkpt lat="42.92165" lon="0.3141">
        <ele>1711</ele>
        <time>2021-01-09T14:02:56Z</time>
      </trkpt>
      <trkpt lat="42.92146" lon="0.31408">
        <ele>1712</ele>
        <time>2021-01-09T14:03:11Z</time>
      </trkpt>
      <trkpt lat="42.92108" lon="0.31393">
        <ele>1714</ele>
        <time>2021-01-09T14:03:43Z</time>
      </trkpt>
      <trkpt lat="42.92082" lon="0.31379">
        <ele>1717</ele>
        <time>2021-01-09T14:04:05Z</time>
      </trkpt>
      <trkpt lat="42.92025" lon="0.31355">
        <ele>1729</ele>
        <time>2021-01-09T14:04:53Z</time>
      </trkpt>
      <trkpt lat="42.92008" lon="0.31354">
        <ele>1732</ele>
        <time>2021-01-09T14:05:06Z</time>
      </trkpt>
      <trkpt lat="42.9198" lon="0.31366">
        <ele>1733</ele>
        <time>2021-01-09T14:05:30Z</time>
      </trkpt>
      <trkpt lat="42.9198" lon="0.31361">
        <ele>1734</ele>
        <time>2021-01-09T14:05:33Z</time>
      </trkpt>
      <trkpt lat="42.91959" lon="0.31337">
        <ele>1739</ele>
        <time>2021-01-09T14:05:55Z</time>
      </trkpt>
      <trkpt lat="42.91943" lon="0.31329">
        <ele>1740</ele>
        <time>2021-01-09T14:06:08Z</time>
      </trkpt>
      <trkpt lat="42.91934" lon="0.31329">
        <ele>1741</ele>
        <time>2021-01-09T14:06:16Z</time>
      </trkpt>
      <trkpt lat="42.91915" lon="0.31321">
        <ele>1741</ele>
        <time>2021-01-09T14:06:32Z</time>
      </trkpt>
      <trkpt lat="42.91899" lon="0.31306">
        <ele>1738</ele>
        <time>2021-01-09T14:06:47Z</time>
      </trkpt>
      <trkpt lat="42.91889" lon="0.31301">
        <ele>1737</ele>
        <time>2021-01-09T14:06:56Z</time>
      </trkpt>
      <trkpt lat="42.9186" lon="0.31265">
        <ele>1733</ele>
        <time>2021-01-09T14:07:27Z</time>
      </trkpt>
      <trkpt lat="42.91851" lon="0.31259">
        <ele>1732</ele>
        <time>2021-01-09T14:07:35Z</time>
      </trkpt>
      <trkpt lat="42.91832" lon="0.31254">
        <ele>1730</ele>
        <time>2021-01-09T14:07:50Z</time>
      </trkpt>
      <trkpt lat="42.91809" lon="0.31271">
        <ele>1723</ele>
        <time>2021-01-09T14:08:11Z</time>
      </trkpt>
      <trkpt lat="42.91791" lon="0.31276">
        <ele>1717</ele>
        <time>2021-01-09T14:08:26Z</time>
      </trkpt>
      <trkpt lat="42.91741" lon="0.31259">
        <ele>1700</ele>
        <time>2021-01-09T14:09:07Z</time>
      </trkpt>
      <trkpt lat="42.91713" lon="0.31258">
        <ele>1692</ele>
        <time>2021-01-09T14:09:30Z</time>
      </trkpt>
      <trkpt lat="42.91677" lon="0.31241">
        <ele>1681</ele>
        <time>2021-01-09T14:10:00Z</time>
      </trkpt>
      <trkpt lat="42.91643" lon="0.31221">
        <ele>1667</ele>
        <time>2021-01-09T14:10:30Z</time>
      </trkpt>
      <trkpt lat="42.91617" lon="0.312">
        <ele>1657</ele>
        <time>2021-01-09T14:10:54Z</time>
      </trkpt>
      <trkpt lat="42.91575" lon="0.31153">
        <ele>1642</ele>
        <time>2021-01-09T14:11:38Z</time>
      </trkpt>
      <trkpt lat="42.9155" lon="0.31141">
        <ele>1635</ele>
        <time>2021-01-09T14:11:59Z</time>
      </trkpt>
      <trkpt lat="42.91542" lon="0.31134">
        <ele>1632</ele>
        <time>2021-01-09T14:12:06Z</time>
      </trkpt>
      <trkpt lat="42.91532" lon="0.3113">
        <ele>1630</ele>
        <time>2021-01-09T14:12:15Z</time>
      </trkpt>
      <trkpt lat="42.91525" lon="0.31123">
        <ele>1628</ele>
        <time>2021-01-09T14:12:22Z</time>
      </trkpt>
      <trkpt lat="42.91505" lon="0.31113">
        <ele>1623</ele>
        <time>2021-01-09T14:12:39Z</time>
      </trkpt>
      <trkpt lat="42.91496" lon="0.31113">
        <ele>1621</ele>
        <time>2021-01-09T14:12:46Z</time>
      </trkpt>
      <trkpt lat="42.91487" lon="0.31118">
        <ele>1620</ele>
        <time>2021-01-09T14:12:54Z</time>
      </trkpt>
      <trkpt lat="42.91478" lon="0.31118">
        <ele>1618</ele>
        <time>2021-01-09T14:13:01Z</time>
      </trkpt>
      <trkpt lat="42.91463" lon="0.31105">
        <ele>1616</ele>
        <time>2021-01-09T14:13:15Z</time>
      </trkpt>
      <trkpt lat="42.91446" lon="0.31104">
        <ele>1613</ele>
        <time>2021-01-09T14:13:29Z</time>
      </trkpt>
      <trkpt lat="42.91419" lon="0.31096">
        <ele>1610</ele>
        <time>2021-01-09T14:13:51Z</time>
      </trkpt>
      <trkpt lat="42.91413" lon="0.31087">
        <ele>1611</ele>
        <time>2021-01-09T14:13:58Z</time>
      </trkpt>
      <trkpt lat="42.91405" lon="0.31083">
        <ele>1611</ele>
        <time>2021-01-09T14:14:05Z</time>
      </trkpt>
      <trkpt lat="42.9139" lon="0.31066">
        <ele>1608</ele>
        <time>2021-01-09T14:14:20Z</time>
      </trkpt>
      <trkpt lat="42.91373" lon="0.31064">
        <ele>1607</ele>
        <time>2021-01-09T14:14:34Z</time>
      </trkpt>
      <trkpt lat="42.91357" lon="0.31055">
        <ele>1605</ele>
        <time>2021-01-09T14:14:48Z</time>
      </trkpt>
      <trkpt lat="42.91342" lon="0.31042">
        <ele>1604</ele>
        <time>2021-01-09T14:15:02Z</time>
      </trkpt>
      <trkpt lat="42.91333" lon="0.31038">
        <ele>1604</ele>
        <time>2021-01-09T14:15:10Z</time>
      </trkpt>
      <trkpt lat="42.91321" lon="0.31016">
        <ele>1604</ele>
        <time>2021-01-09T14:15:26Z</time>
      </trkpt>
      <trkpt lat="42.91313" lon="0.31009">
        <ele>1604</ele>
        <time>2021-01-09T14:15:34Z</time>
      </trkpt>
      <trkpt lat="42.91305" lon="0.31009">
        <ele>1604</ele>
        <time>2021-01-09T14:15:40Z</time>
      </trkpt>
      <trkpt lat="42.9129" lon="0.30997">
        <ele>1605</ele>
        <time>2021-01-09T14:15:54Z</time>
      </trkpt>
      <trkpt lat="42.91281" lon="0.30993">
        <ele>1606</ele>
        <time>2021-01-09T14:16:01Z</time>
      </trkpt>
      <trkpt lat="42.91275" lon="0.30994">
        <ele>1606</ele>
        <time>2021-01-09T14:16:06Z</time>
      </trkpt>
      <trkpt lat="42.91269" lon="0.3099">
        <ele>1607</ele>
        <time>2021-01-09T14:16:12Z</time>
      </trkpt>
      <trkpt lat="42.91263" lon="0.30981">
        <ele>1608</ele>
        <time>2021-01-09T14:16:19Z</time>
      </trkpt>
      <trkpt lat="42.91237" lon="0.30924">
        <ele>1618</ele>
        <time>2021-01-09T14:16:58Z</time>
      </trkpt>
      <trkpt lat="42.91239" lon="0.3091">
        <ele>1620</ele>
        <time>2021-01-09T14:17:06Z</time>
      </trkpt>
      <trkpt lat="42.91237" lon="0.30872">
        <ele>1623</ele>
        <time>2021-01-09T14:17:29Z</time>
      </trkpt>
      <trkpt lat="42.91233" lon="0.30861">
        <ele>1625</ele>
        <time>2021-01-09T14:17:36Z</time>
      </trkpt>
      <trkpt lat="42.91207" lon="0.30861">
        <ele>1630</ele>
        <time>2021-01-09T14:17:57Z</time>
      </trkpt>
      <trkpt lat="42.91168" lon="0.30822">
        <ele>1641</ele>
        <time>2021-01-09T14:18:36Z</time>
      </trkpt>
      <trkpt lat="42.91134" lon="0.30782">
        <ele>1639</ele>
        <time>2021-01-09T14:19:11Z</time>
      </trkpt>
      <trkpt lat="42.91104" lon="0.30756">
        <ele>1640</ele>
        <time>2021-01-09T14:19:40Z</time>
      </trkpt>
      <trkpt lat="42.91071" lon="0.30733">
        <ele>1638</ele>
        <time>2021-01-09T14:20:10Z</time>
      </trkpt>
      <trkpt lat="42.91032" lon="0.30722">
        <ele>1636</ele>
        <time>2021-01-09T14:20:41Z</time>
      </trkpt>
      <trkpt lat="42.91007" lon="0.30708">
        <ele>1633</ele>
        <time>2021-01-09T14:21:03Z</time>
      </trkpt>
      <trkpt lat="42.90988" lon="0.30703">
        <ele>1630</ele>
        <time>2021-01-09T14:21:19Z</time>
      </trkpt>
      <trkpt lat="42.90972" lon="0.30693">
        <ele>1626</ele>
        <time>2021-01-09T14:21:33Z</time>
      </trkpt>
      <trkpt lat="42.90954" lon="0.30689">
        <ele>1623</ele>
        <time>2021-01-09T14:21:47Z</time>
      </trkpt>
      <trkpt lat="42.90899" lon="0.30638">
        <ele>1607</ele>
        <time>2021-01-09T14:22:41Z</time>
      </trkpt>
      <trkpt lat="42.90873" lon="0.30592">
        <ele>1597</ele>
        <time>2021-01-09T14:23:15Z</time>
      </trkpt>
      <trkpt lat="42.9086" lon="0.30563">
        <ele>1593</ele>
        <time>2021-01-09T14:23:35Z</time>
      </trkpt>
      <trkpt lat="42.90853" lon="0.30533">
        <ele>1589</ele>
        <time>2021-01-09T14:23:53Z</time>
      </trkpt>
      <trkpt lat="42.90854" lon="0.30497">
        <ele>1583</ele>
        <time>2021-01-09T14:24:14Z</time>
      </trkpt>
      <trkpt lat="42.90848" lon="0.30447">
        <ele>1575</ele>
        <time>2021-01-09T14:24:44Z</time>
      </trkpt>
      <trkpt lat="42.90851" lon="0.30435">
        <ele>1572</ele>
        <time>2021-01-09T14:24:51Z</time>
      </trkpt>
      <trkpt lat="42.90852" lon="0.3041">
        <ele>1567</ele>
        <time>2021-01-09T14:25:06Z</time>
      </trkpt>
      <trkpt lat="42.90849" lon="0.30398">
        <ele>1565</ele>
        <time>2021-01-09T14:25:13Z</time>
      </trkpt>
      <trkpt lat="42.90851" lon="0.30372">
        <ele>1559</ele>
        <time>2021-01-09T14:25:29Z</time>
      </trkpt>
      <trkpt lat="42.90856" lon="0.30348">
        <ele>1554</ele>
        <time>2021-01-09T14:25:43Z</time>
      </trkpt>
      <trkpt lat="42.9086" lon="0.30346">
        <ele>1553</ele>
        <time>2021-01-09T14:25:47Z</time>
      </trkpt>
      <trkpt lat="42.90869" lon="0.30323">
        <ele>1547</ele>
        <time>2021-01-09T14:26:02Z</time>
      </trkpt>
      <trkpt lat="42.90886" lon="0.30266">
        <ele>1530</ele>
        <time>2021-01-09T14:26:38Z</time>
      </trkpt>
      <trkpt lat="42.90908" lon="0.30237">
        <ele>1521</ele>
        <time>2021-01-09T14:27:03Z</time>
      </trkpt>
      <trkpt lat="42.90909" lon="0.30225">
        <ele>1518</ele>
        <time>2021-01-09T14:27:10Z</time>
      </trkpt>
      <trkpt lat="42.90937" lon="0.30173">
        <ele>1500</ele>
        <time>2021-01-09T14:27:48Z</time>
      </trkpt>
      <trkpt lat="42.90945" lon="0.30152">
        <ele>1494</ele>
        <time>2021-01-09T14:28:01Z</time>
      </trkpt>
      <trkpt lat="42.90975" lon="0.30124">
        <ele>1484</ele>
        <time>2021-01-09T14:28:31Z</time>
      </trkpt>
      <trkpt lat="42.91" lon="0.30087">
        <ele>1476</ele>
        <time>2021-01-09T14:29:00Z</time>
      </trkpt>
      <trkpt lat="42.91025" lon="0.30069">
        <ele>1469</ele>
        <time>2021-01-09T14:29:23Z</time>
      </trkpt>
      <trkpt lat="42.91043" lon="0.30065">
        <ele>1464</ele>
        <time>2021-01-09T14:29:37Z</time>
      </trkpt>
      <trkpt lat="42.91053" lon="0.30064">
        <ele>1462</ele>
        <time>2021-01-09T14:29:45Z</time>
      </trkpt>
      <trkpt lat="42.91071" lon="0.30067">
        <ele>1459</ele>
        <time>2021-01-09T14:30:00Z</time>
      </trkpt>
      <trkpt lat="42.91081" lon="0.30064">
        <ele>1457</ele>
        <time>2021-01-09T14:30:08Z</time>
      </trkpt>
      <trkpt lat="42.91088" lon="0.30066">
        <ele>1455</ele>
        <time>2021-01-09T14:30:14Z</time>
      </trkpt>
      <trkpt lat="42.91095" lon="0.30073">
        <ele>1454</ele>
        <time>2021-01-09T14:30:21Z</time>
      </trkpt>
      <trkpt lat="42.911" lon="0.30083">
        <ele>1453</ele>
        <time>2021-01-09T14:30:28Z</time>
      </trkpt>
      <trkpt lat="42.91111" lon="0.30092">
        <ele>1451</ele>
        <time>2021-01-09T14:30:38Z</time>
      </trkpt>
      <trkpt lat="42.91121" lon="0.30092">
        <ele>1448</ele>
        <time>2021-01-09T14:30:46Z</time>
      </trkpt>
      <trkpt lat="42.91129" lon="0.30096">
        <ele>1447</ele>
        <time>2021-01-09T14:30:53Z</time>
      </trkpt>
      <trkpt lat="42.91182" lon="0.30105">
        <ele>1440</ele>
        <time>2021-01-09T14:31:36Z</time>
      </trkpt>
      <trkpt lat="42.91202" lon="0.30112">
        <ele>1443</ele>
        <time>2021-01-09T14:31:52Z</time>
      </trkpt>
      <trkpt lat="42.9121" lon="0.30127">
        <ele>1447</ele>
        <time>2021-01-09T14:32:03Z</time>
      </trkpt>
      <trkpt lat="42.91216" lon="0.30122">
        <ele>1446</ele>
        <time>2021-01-09T14:32:09Z</time>
      </trkpt>
      <trkpt lat="42.91196" lon="0.30087">
        <ele>1436</ele>
        <time>2021-01-09T14:32:35Z</time>
      </trkpt>
      <trkpt lat="42.91188" lon="0.30051">
        <ele>1430</ele>
        <time>2021-01-09T14:32:57Z</time>
      </trkpt>
      <trkpt lat="42.9119" lon="0.30029">
        <ele>1428</ele>
        <time>2021-01-09T14:33:10Z</time>
      </trkpt>
      <trkpt lat="42.91197" lon="0.29998">
        <ele>1426</ele>
        <time>2021-01-09T14:33:29Z</time>
      </trkpt>
      <trkpt lat="42.91201" lon="0.29955">
        <ele>1424</ele>
        <time>2021-01-09T14:33:54Z</time>
      </trkpt>
      <trkpt lat="42.91205" lon="0.29944">
        <ele>1423</ele>
        <time>2021-01-09T14:34:01Z</time>
      </trkpt>
      <trkpt lat="42.91204" lon="0.29932">
        <ele>1422</ele>
        <time>2021-01-09T14:34:09Z</time>
      </trkpt>
      <trkpt lat="42.91207" lon="0.29917">
        <ele>1421</ele>
        <time>2021-01-09T14:34:18Z</time>
      </trkpt>
      <trkpt lat="42.91233" lon="0.29877">
        <ele>1417</ele>
        <time>2021-01-09T14:34:49Z</time>
      </trkpt>
      <trkpt lat="42.91262" lon="0.29825">
        <ele>1411</ele>
        <time>2021-01-09T14:35:27Z</time>
      </trkpt>
      <trkpt lat="42.9127" lon="0.29818">
        <ele>1412</ele>
        <time>2021-01-09T14:35:35Z</time>
      </trkpt>
      <trkpt lat="42.9129" lon="0.29817">
        <ele>1414</ele>
        <time>2021-01-09T14:35:51Z</time>
      </trkpt>
      <trkpt lat="42.91317" lon="0.29802">
        <ele>1415</ele>
        <time>2021-01-09T14:36:14Z</time>
      </trkpt>
      <trkpt lat="42.91319" lon="0.29788">
        <ele>1414</ele>
        <time>2021-01-09T14:36:23Z</time>
      </trkpt>
      <trkpt lat="42.91345" lon="0.29772">
        <ele>1414</ele>
        <time>2021-01-09T14:36:46Z</time>
      </trkpt>
      <trkpt lat="42.91431" lon="0.29678">
        <ele>1407</ele>
        <time>2021-01-09T14:38:14Z</time>
      </trkpt>
      <trkpt lat="42.91439" lon="0.29672">
        <ele>1407</ele>
        <time>2021-01-09T14:38:21Z</time>
      </trkpt>
      <trkpt lat="42.9147" lon="0.29635">
        <ele>1399</ele>
        <time>2021-01-09T14:38:54Z</time>
      </trkpt>
      <trkpt lat="42.91491" lon="0.29616">
        <ele>1395</ele>
        <time>2021-01-09T14:39:14Z</time>
      </trkpt>
      <trkpt lat="42.91581" lon="0.29556">
        <ele>1384</ele>
        <time>2021-01-09T14:40:34Z</time>
      </trkpt>
      <trkpt lat="42.91612" lon="0.29547">
        <ele>1381</ele>
        <time>2021-01-09T14:41:00Z</time>
      </trkpt>
      <trkpt lat="42.91629" lon="0.29536">
        <ele>1376</ele>
        <time>2021-01-09T14:41:15Z</time>
      </trkpt>
      <trkpt lat="42.91636" lon="0.29539">
        <ele>1377</ele>
        <time>2021-01-09T14:41:21Z</time>
      </trkpt>
      <trkpt lat="42.91639" lon="0.29535">
        <ele>1376</ele>
        <time>2021-01-09T14:41:24Z</time>
      </trkpt>
      <trkpt lat="42.91659" lon="0.29532">
        <ele>1374</ele>
        <time>2021-01-09T14:41:40Z</time>
      </trkpt>
      <trkpt lat="42.9167" lon="0.29526">
        <ele>1371</ele>
        <time>2021-01-09T14:41:50Z</time>
      </trkpt>
      <trkpt lat="42.91681" lon="0.29524">
        <ele>1369</ele>
        <time>2021-01-09T14:41:59Z</time>
      </trkpt>
      <trkpt lat="42.91692" lon="0.29526">
        <ele>1369</ele>
        <time>2021-01-09T14:42:07Z</time>
      </trkpt>
      <trkpt lat="42.91703" lon="0.29522">
        <ele>1366</ele>
        <time>2021-01-09T14:42:17Z</time>
      </trkpt>
      <trkpt lat="42.91714" lon="0.29523">
        <ele>1365</ele>
        <time>2021-01-09T14:42:25Z</time>
      </trkpt>
      <trkpt lat="42.91747" lon="0.29529">
        <ele>1362</ele>
        <time>2021-01-09T14:42:52Z</time>
      </trkpt>
      <trkpt lat="42.91772" lon="0.29537">
        <ele>1356</ele>
        <time>2021-01-09T14:43:13Z</time>
      </trkpt>
      <trkpt lat="42.91781" lon="0.29544">
        <ele>1354</ele>
        <time>2021-01-09T14:43:21Z</time>
      </trkpt>
      <trkpt lat="42.91826" lon="0.29595">
        <ele>1344</ele>
        <time>2021-01-09T14:44:08Z</time>
      </trkpt>
      <trkpt lat="42.91836" lon="0.29603">
        <ele>1340</ele>
        <time>2021-01-09T14:44:17Z</time>
      </trkpt>
      <trkpt lat="42.91839" lon="0.29612">
        <ele>1339</ele>
        <time>2021-01-09T14:44:23Z</time>
      </trkpt>
      <trkpt lat="42.9186" lon="0.29638">
        <ele>1335</ele>
        <time>2021-01-09T14:44:45Z</time>
      </trkpt>
      <trkpt lat="42.91876" lon="0.29648">
        <ele>1332</ele>
        <time>2021-01-09T14:45:00Z</time>
      </trkpt>
      <trkpt lat="42.91898" lon="0.29671">
        <ele>1329</ele>
        <time>2021-01-09T14:45:22Z</time>
      </trkpt>
      <trkpt lat="42.91916" lon="0.29681">
        <ele>1326</ele>
        <time>2021-01-09T14:45:37Z</time>
      </trkpt>
      <trkpt lat="42.91927" lon="0.29686">
        <ele>1326</ele>
        <time>2021-01-09T14:45:47Z</time>
      </trkpt>
      <trkpt lat="42.9195" lon="0.2969">
        <ele>1324</ele>
        <time>2021-01-09T14:46:05Z</time>
      </trkpt>
      <trkpt lat="42.9201" lon="0.29696">
        <ele>1322</ele>
        <time>2021-01-09T14:46:53Z</time>
      </trkpt>
      <trkpt lat="42.92018" lon="0.29701">
        <ele>1322</ele>
        <time>2021-01-09T14:47:00Z</time>
      </trkpt>
      <trkpt lat="42.92036" lon="0.29697">
        <ele>1321</ele>
        <time>2021-01-09T14:47:15Z</time>
      </trkpt>
      <trkpt lat="42.92046" lon="0.297">
        <ele>1321</ele>
        <time>2021-01-09T14:47:23Z</time>
      </trkpt>
      <trkpt lat="42.92072" lon="0.29717">
        <ele>1321</ele>
        <time>2021-01-09T14:47:46Z</time>
      </trkpt>
      <trkpt lat="42.92081" lon="0.29718">
        <ele>1321</ele>
        <time>2021-01-09T14:47:53Z</time>
      </trkpt>
      <trkpt lat="42.92125" lon="0.29706">
        <ele>1323</ele>
        <time>2021-01-09T14:48:29Z</time>
      </trkpt>
      <trkpt lat="42.92178" lon="0.29675">
        <ele>1323</ele>
        <time>2021-01-09T14:49:16Z</time>
      </trkpt>
      <trkpt lat="42.92186" lon="0.29668">
        <ele>1323</ele>
        <time>2021-01-09T14:49:23Z</time>
      </trkpt>
      <trkpt lat="42.92238" lon="0.29642">
        <ele>1329</ele>
        <time>2021-01-09T14:50:07Z</time>
      </trkpt>
      <trkpt lat="42.9225" lon="0.29634">
        <ele>1329</ele>
        <time>2021-01-09T14:50:18Z</time>
      </trkpt>
      <trkpt lat="42.9226" lon="0.29621">
        <ele>1328</ele>
        <time>2021-01-09T14:50:29Z</time>
      </trkpt>
      <trkpt lat="42.92284" lon="0.29614">
        <ele>1328</ele>
        <time>2021-01-09T14:50:49Z</time>
      </trkpt>
      <trkpt lat="42.92303" lon="0.29602">
        <ele>1326</ele>
        <time>2021-01-09T14:51:06Z</time>
      </trkpt>
      <trkpt lat="42.92336" lon="0.29592">
        <ele>1325</ele>
        <time>2021-01-09T14:51:33Z</time>
      </trkpt>
      <trkpt lat="42.92391" lon="0.29587">
        <ele>1324</ele>
        <time>2021-01-09T14:52:17Z</time>
      </trkpt>
      <trkpt lat="42.92413" lon="0.29589">
        <ele>1325</ele>
        <time>2021-01-09T14:52:35Z</time>
      </trkpt>
      <trkpt lat="42.92445" lon="0.29588">
        <ele>1324</ele>
        <time>2021-01-09T14:53:00Z</time>
      </trkpt>
      <trkpt lat="42.92479" lon="0.29592">
        <ele>1324</ele>
        <time>2021-01-09T14:53:27Z</time>
      </trkpt>
      <trkpt lat="42.92536" lon="0.29603">
        <ele>1318</ele>
        <time>2021-01-09T14:54:14Z</time>
      </trkpt>
      <trkpt lat="42.92586" lon="0.29629">
        <ele>1313</ele>
        <time>2021-01-09T14:54:56Z</time>
      </trkpt>
      <trkpt lat="42.92609" lon="0.29634">
        <ele>1308</ele>
        <time>2021-01-09T14:55:15Z</time>
      </trkpt>
      <trkpt lat="42.92645" lon="0.29648">
        <ele>1299</ele>
        <time>2021-01-09T14:55:45Z</time>
      </trkpt>
      <trkpt lat="42.92656" lon="0.29649">
        <ele>1295</ele>
        <time>2021-01-09T14:55:54Z</time>
      </trkpt>
      <trkpt lat="42.92695" lon="0.29621">
        <ele>1284</ele>
        <time>2021-01-09T14:56:29Z</time>
      </trkpt>
      <trkpt lat="42.92726" lon="0.29619">
        <ele>1275</ele>
        <time>2021-01-09T14:56:54Z</time>
      </trkpt>
      <trkpt lat="42.92743" lon="0.29621">
        <ele>1271</ele>
        <time>2021-01-09T14:57:08Z</time>
      </trkpt>
      <trkpt lat="42.92765" lon="0.29613">
        <ele>1267</ele>
        <time>2021-01-09T14:57:26Z</time>
      </trkpt>
      <trkpt lat="42.92814" lon="0.29612">
        <ele>1259</ele>
        <time>2021-01-09T14:58:05Z</time>
      </trkpt>
      <trkpt lat="42.92858" lon="0.29599">
        <ele>1253</ele>
        <time>2021-01-09T14:58:41Z</time>
      </trkpt>
      <trkpt lat="42.92879" lon="0.296">
        <ele>1250</ele>
        <time>2021-01-09T14:58:58Z</time>
      </trkpt>
      <trkpt lat="42.92929" lon="0.29611">
        <ele>1241</ele>
        <time>2021-01-09T14:59:39Z</time>
      </trkpt>
      <trkpt lat="42.92941" lon="0.2961">
        <ele>1239</ele>
        <time>2021-01-09T14:59:48Z</time>
      </trkpt>
      <trkpt lat="42.9296" lon="0.29603">
        <ele>1238</ele>
        <time>2021-01-09T15:00:04Z</time>
      </trkpt>
      <trkpt lat="42.9297" lon="0.29604">
        <ele>1236</ele>
        <time>2021-01-09T15:00:12Z</time>
      </trkpt>
      <trkpt lat="42.93001" lon="0.29599">
        <ele>1233</ele>
        <time>2021-01-09T15:00:37Z</time>
      </trkpt>
      <trkpt lat="42.93043" lon="0.29583">
        <ele>1227</ele>
        <time>2021-01-09T15:01:12Z</time>
      </trkpt>
      <trkpt lat="42.93065" lon="0.29577">
        <ele>1221</ele>
        <time>2021-01-09T15:01:30Z</time>
      </trkpt>
      <trkpt lat="42.93075" lon="0.29577">
        <ele>1219</ele>
        <time>2021-01-09T15:01:38Z</time>
      </trkpt>
      <trkpt lat="42.93129" lon="0.29553">
        <ele>1205</ele>
        <time>2021-01-09T15:02:23Z</time>
      </trkpt>
      <trkpt lat="42.93152" lon="0.29554">
        <ele>1201</ele>
        <time>2021-01-09T15:02:42Z</time>
      </trkpt>
      <trkpt lat="42.93164" lon="0.29551">
        <ele>1198</ele>
        <time>2021-01-09T15:02:51Z</time>
      </trkpt>
      <trkpt lat="42.93181" lon="0.29539">
        <ele>1195</ele>
        <time>2021-01-09T15:03:07Z</time>
      </trkpt>
      <trkpt lat="42.93187" lon="0.2953">
        <ele>1194</ele>
        <time>2021-01-09T15:03:14Z</time>
      </trkpt>
      <trkpt lat="42.93193" lon="0.29533">
        <ele>1193</ele>
        <time>2021-01-09T15:03:19Z</time>
      </trkpt>
      <trkpt lat="42.93216" lon="0.2952">
        <ele>1189</ele>
        <time>2021-01-09T15:03:39Z</time>
      </trkpt>
      <trkpt lat="42.93227" lon="0.29519">
        <ele>1187</ele>
        <time>2021-01-09T15:03:48Z</time>
      </trkpt>
      <trkpt lat="42.93245" lon="0.2951">
        <ele>1184</ele>
        <time>2021-01-09T15:04:03Z</time>
      </trkpt>
      <trkpt lat="42.93266" lon="0.29504">
        <ele>1179</ele>
        <time>2021-01-09T15:04:20Z</time>
      </trkpt>
      <trkpt lat="42.9331" lon="0.29466">
        <ele>1163</ele>
        <time>2021-01-09T15:05:02Z</time>
      </trkpt>
      <trkpt lat="42.9333" lon="0.29466">
        <ele>1159</ele>
        <time>2021-01-09T15:05:18Z</time>
      </trkpt>
      <trkpt lat="42.93339" lon="0.29469">
        <ele>1157</ele>
        <time>2021-01-09T15:05:25Z</time>
      </trkpt>
      <trkpt lat="42.9336" lon="0.29496">
        <ele>1154</ele>
        <time>2021-01-09T15:05:49Z</time>
      </trkpt>
      <trkpt lat="42.93359" lon="0.2952">
        <ele>1153</ele>
        <time>2021-01-09T15:06:03Z</time>
      </trkpt>
      <trkpt lat="42.93352" lon="0.29545">
        <ele>1153</ele>
        <time>2021-01-09T15:06:18Z</time>
      </trkpt>
      <trkpt lat="42.93349" lon="0.29572">
        <ele>1151</ele>
        <time>2021-01-09T15:06:34Z</time>
      </trkpt>
      <trkpt lat="42.93344" lon="0.29584">
        <ele>1151</ele>
        <time>2021-01-09T15:06:42Z</time>
      </trkpt>
      <trkpt lat="42.93331" lon="0.29604">
        <ele>1153</ele>
        <time>2021-01-09T15:06:58Z</time>
      </trkpt>
      <trkpt lat="42.93312" lon="0.2965">
        <ele>1150</ele>
        <time>2021-01-09T15:07:29Z</time>
      </trkpt>
      <trkpt lat="42.93311" lon="0.29661">
        <ele>1149</ele>
        <time>2021-01-09T15:07:36Z</time>
      </trkpt>
      <trkpt lat="42.93305" lon="0.29673">
        <ele>1148</ele>
        <time>2021-01-09T15:07:44Z</time>
      </trkpt>
      <trkpt lat="42.93297" lon="0.29727">
        <ele>1146</ele>
        <time>2021-01-09T15:08:16Z</time>
      </trkpt>
      <trkpt lat="42.93298" lon="0.29739">
        <ele>1145</ele>
        <time>2021-01-09T15:08:23Z</time>
      </trkpt>
      <trkpt lat="42.93308" lon="0.29758">
        <ele>1146</ele>
        <time>2021-01-09T15:08:37Z</time>
      </trkpt>
      <trkpt lat="42.93316" lon="0.29763">
        <ele>1147</ele>
        <time>2021-01-09T15:08:44Z</time>
      </trkpt>
      <trkpt lat="42.93336" lon="0.29771">
        <ele>1150</ele>
        <time>2021-01-09T15:09:01Z</time>
      </trkpt>
      <trkpt lat="42.9336" lon="0.29772">
        <ele>1153</ele>
        <time>2021-01-09T15:09:20Z</time>
      </trkpt>
      <trkpt lat="42.93378" lon="0.29781">
        <ele>1156</ele>
        <time>2021-01-09T15:09:35Z</time>
      </trkpt>
      <trkpt lat="42.93399" lon="0.29807">
        <ele>1160</ele>
        <time>2021-01-09T15:09:58Z</time>
      </trkpt>
      <trkpt lat="42.93406" lon="0.29835">
        <ele>1162</ele>
        <time>2021-01-09T15:10:15Z</time>
      </trkpt>
      <trkpt lat="42.93425" lon="0.29856">
        <ele>1162</ele>
        <time>2021-01-09T15:10:35Z</time>
      </trkpt>
      <trkpt lat="42.9344" lon="0.29868">
        <ele>1161</ele>
        <time>2021-01-09T15:10:49Z</time>
      </trkpt>
      <trkpt lat="42.93447" lon="0.29878">
        <ele>1160</ele>
        <time>2021-01-09T15:10:57Z</time>
      </trkpt>
      <trkpt lat="42.93462" lon="0.29912">
        <ele>1155</ele>
        <time>2021-01-09T15:11:20Z</time>
      </trkpt>
      <trkpt lat="42.93477" lon="0.29961">
        <ele>1157</ele>
        <time>2021-01-09T15:11:52Z</time>
      </trkpt>
      <trkpt lat="42.93507" lon="0.29997">
        <ele>1153</ele>
        <time>2021-01-09T15:12:23Z</time>
      </trkpt>
      <trkpt lat="42.93515" lon="0.3002">
        <ele>1155</ele>
        <time>2021-01-09T15:12:38Z</time>
      </trkpt>
      <trkpt lat="42.93518" lon="0.30046">
        <ele>1158</ele>
        <time>2021-01-09T15:12:54Z</time>
      </trkpt>
      <trkpt lat="42.93523" lon="0.30059">
        <ele>1159</ele>
        <time>2021-01-09T15:13:02Z</time>
      </trkpt>
      <trkpt lat="42.93538" lon="0.30068">
        <ele>1157</ele>
        <time>2021-01-09T15:13:16Z</time>
      </trkpt>
      <trkpt lat="42.93545" lon="0.30059">
        <ele>1155</ele>
        <time>2021-01-09T15:13:23Z</time>
      </trkpt>
      <trkpt lat="42.93547" lon="0.30046">
        <ele>1154</ele>
        <time>2021-01-09T15:13:31Z</time>
      </trkpt>
    </trkseg>
  </trk>
</gpx>